Time;durP1;ratioP1;P1;durP2;ratioP2;P2;SDS_P1;SDS_P2;PMS_P1;PMS_P2;Temp;Humidity;BMP_temperature;BMP_pressure;BME280_temperature;BME280_humidity;BME280_pressure;Samples;Min_cycle;Max_cycle;Signal;HPM_P1;HPM_P2
2023/03/06 00:02:17;;;;;;;4.72;1.40;;;4.50;99.90;;;;;;4655906;30;20663;-73
2023/03/06 00:04:42;;;;;;;3.17;1.42;;;4.50;99.90;;;;;;4659829;30;20572;-73
2023/03/06 00:07:08;;;;;;;5.95;1.27;;;4.50;99.90;;;;;;4667913;30;20205;-73
2023/03/06 00:09:34;;;;;;;5.63;1.48;;;4.50;99.90;;;;;;4649684;30;20236;-74
2023/03/06 00:12:00;;;;;;;5.72;1.70;;;4.40;99.90;;;;;;4675409;30;20288;-73
2023/03/06 00:14:25;;;;;;;3.25;1.17;;;4.40;99.90;;;;;;4677653;30;20197;-74
2023/03/06 00:16:54;;;;;;;2.08;1.08;;;4.40;99.90;;;;;;4682743;30;20239;-73
2023/03/06 00:19:21;;;;;;;5.10;1.20;;;4.40;99.90;;;;;;4665572;30;20667;-73
2023/03/06 00:21:47;;;;;;;2.13;1.00;;;4.40;99.90;;;;;;4641786;30;20202;-76
2023/03/06 00:24:13;;;;;;;4.88;1.10;;;4.30;99.90;;;;;;4650430;30;20197;-73
2023/03/06 00:26:40;;;;;;;0.93;0.90;;;4.20;99.90;;;;;;4643928;30;20292;-74
2023/03/06 00:29:07;;;;;;;4.05;0.98;;;4.20;99.90;;;;;;4671753;30;20204;-73
2023/03/06 00:31:33;;;;;;;1.60;0.82;;;4.10;99.90;;;;;;4656088;30;20193;-75
2023/03/06 00:33:59;;;;;;;2.05;0.98;;;4.00;99.90;;;;;;4674942;30;20201;-73
2023/03/06 00:36:24;;;;;;;1.92;1.00;;;3.90;99.90;;;;;;4667512;30;20557;-72
2023/03/06 00:38:50;;;;;;;6.43;1.25;;;3.90;99.90;;;;;;4676894;30;20201;-73
2023/03/06 00:41:16;;;;;;;3.25;1.27;;;3.90;99.90;;;;;;4667501;30;20677;-73
2023/03/06 00:43:42;;;;;;;1.45;1.05;;;3.90;99.90;;;;;;4653563;30;20201;-75
2023/03/06 00:46:08;;;;;;;1.95;1.10;;;3.90;99.90;;;;;;4640624;30;20202;-73
2023/03/06 00:48:33;;;;;;;4.10;1.10;;;3.90;99.90;;;;;;4648963;30;20205;-72
2023/03/06 00:51:00;;;;;;;3.65;1.00;;;3.90;99.90;;;;;;4662683;30;20736;-73
2023/03/06 00:53:25;;;;;;;1.92;1.10;;;3.90;99.90;;;;;;4647528;30;20205;-75
2023/03/06 00:55:52;;;;;;;3.63;1.25;;;3.90;99.90;;;;;;4649453;30;20210;-73
2023/03/06 00:58:18;;;;;;;5.45;1.05;;;4.00;99.90;;;;;;4677244;30;20228;-73
2023/03/06 01:00:44;;;;;;;1.67;1.30;;;4.00;99.90;;;;;;4655421;30;20253;-72
2023/03/06 01:03:11;;;;;;;1.00;0.90;;;4.00;99.90;;;;;;4647768;30;20217;-74
2023/03/06 01:05:37;;;;;;;1.50;1.08;;;4.00;99.90;;;;;;4652621;30;20193;-73
2023/03/06 01:08:05;;;;;;;2.90;1.20;;;4.00;99.90;;;;;;4640507;30;20194;-73
2023/03/06 01:10:31;;;;;;;2.88;1.20;;;4.00;99.90;;;;;;4663263;30;20213;-73
2023/03/06 01:12:57;;;;;;;2.92;1.15;;;3.90;99.90;;;;;;4664141;30;20197;-72
2023/03/06 01:15:24;;;;;;;5.45;0.93;;;3.90;99.90;;;;;;4664983;30;20232;-72
2023/03/06 01:17:53;;;;;;;4.45;1.15;;;3.90;99.90;;;;;;4664132;30;20577;-73
2023/03/06 01:20:20;;;;;;;2.53;1.10;;;3.80;99.90;;;;;;4662144;30;20213;-72
2023/03/06 01:22:46;;;;;;;3.63;1.30;;;3.90;99.90;;;;;;4664937;30;20249;-73
2023/03/06 01:25:12;;;;;;;1.38;1.10;;;3.80;99.90;;;;;;4666850;30;20197;-73
2023/03/06 01:27:37;;;;;;;1.65;1.25;;;3.80;99.90;;;;;;4647223;30;20194;-73
2023/03/06 01:30:04;;;;;;;3.90;1.10;;;3.80;99.90;;;;;;4666819;30;20231;-73
2023/03/06 01:32:30;;;;;;;4.03;1.40;;;3.80;99.90;;;;;;4640361;30;20206;-75
2023/03/06 01:34:56;;;;;;;2.00;1.17;;;3.80;99.90;;;;;;4641848;30;20205;-74
2023/03/06 01:37:23;;;;;;;1.77;1.35;;;3.80;99.90;;;;;;4649065;30;20207;-75
2023/03/06 01:39:49;;;;;;;2.15;1.20;;;3.80;99.90;;;;;;4660807;30;20266;-75
2023/03/06 01:42:15;;;;;;;2.92;1.40;;;3.80;99.90;;;;;;4666940;30;20287;-72
2023/03/06 01:45:07;;;;;;;3.38;1.25;;;3.70;99.90;;;;;;4669902;30;20300;-78
2023/03/06 01:47:34;;;;;;;1.40;1.30;;;3.70;99.90;;;;;;4654739;30;20190;-73
2023/03/06 01:50:02;;;;;;;1.52;1.15;;;3.70;99.90;;;;;;4649655;30;20228;-73
2023/03/06 01:52:33;;;;;;;3.78;1.45;;;3.70;99.90;;;;;;4660109;30;20304;-73
2023/03/06 01:55:09;;;;;;;3.30;1.30;;;3.70;99.90;;;;;;4642520;30;20671;-73
2023/03/06 01:57:45;;;;;;;2.50;1.25;;;3.70;99.90;;;;;;4648153;30;20192;-72
2023/03/06 02:00:14;;;;;;;1.23;1.13;;;3.60;99.90;;;;;;4682299;30;20240;-74
2023/03/06 02:02:53;;;;;;;2.70;1.38;;;3.60;99.90;;;;;;4660040;30;20197;-74
2023/03/06 02:05:20;;;;;;;2.90;1.27;;;3.60;99.90;;;;;;4676895;30;20212;-74
2023/03/06 02:07:48;;;;;;;1.48;1.00;;;3.50;99.90;;;;;;4649045;30;20221;-74
2023/03/06 02:10:15;;;;;;;1.90;1.00;;;3.40;99.90;;;;;;4674376;30;20264;-74
2023/03/06 02:12:45;;;;;;;3.08;1.30;;;3.30;99.90;;;;;;4663443;30;20197;-73
2023/03/06 02:15:13;;;;;;;1.30;1.02;;;3.30;99.90;;;;;;4644503;30;20664;-79
2023/03/06 02:17:42;;;;;;;2.60;1.13;;;3.20;99.90;;;;;;4652130;30;20190;-73
2023/03/06 02:20:24;;;;;;;1.58;1.00;;;3.30;99.90;;;;;;4662596;30;20229;-73
2023/03/06 02:22:56;;;;;;;2.33;1.17;;;3.20;99.90;;;;;;4650105;30;20228;-73
2023/03/06 02:25:36;;;;;;;1.20;1.10;;;3.20;99.90;;;;;;4652339;30;20197;-73
2023/03/06 02:28:04;;;;;;;1.58;1.10;;;3.20;99.90;;;;;;4644498;30;20205;-74
2023/03/06 02:30:30;;;;;;;1.85;0.98;;;3.10;99.90;;;;;;4641596;30;20281;-73
2023/03/06 02:32:56;;;;;;;2.00;1.10;;;3.10;99.90;;;;;;4667102;30;20209;-74
2023/03/06 02:35:25;;;;;;;1.60;1.10;;;3.10;99.90;;;;;;4635371;30;20559;-73
2023/03/06 02:37:53;;;;;;;1.98;1.00;;;3.10;99.90;;;;;;4651096;30;20208;-73
2023/03/06 02:40:21;;;;;;;1.50;1.00;;;3.00;99.90;;;;;;4662998;30;20265;-79
2023/03/06 02:42:51;;;;;;;1.80;1.08;;;3.00;99.90;;;;;;4644243;30;20628;-73
2023/03/06 02:45:24;;;;;;;1.52;1.10;;;3.00;99.90;;;;;;4673210;30;20186;-73
2023/03/06 02:47:50;;;;;;;1.83;1.00;;;3.00;99.90;;;;;;4659088;30;20648;-73
2023/03/06 02:50:16;;;;;;;1.27;1.10;;;3.00;99.90;;;;;;4668910;30;20224;-73
2023/03/06 02:52:42;;;;;;;1.33;1.23;;;3.10;99.90;;;;;;4663845;30;20205;-74
2023/03/06 02:55:08;;;;;;;3.22;1.20;;;3.10;99.90;;;;;;4667073;30;20198;-73
2023/03/06 02:57:34;;;;;;;1.52;1.23;;;3.10;99.90;;;;;;4650601;30;20185;-73
2023/03/06 02:59:59;;;;;;;4.57;1.30;;;3.00;99.90;;;;;;4668945;30;20330;-73
2023/03/06 03:02:25;;;;;;;2.05;1.38;;;3.00;99.90;;;;;;4665408;30;20200;-74
2023/03/06 03:04:51;;;;;;;2.20;1.27;;;3.10;99.90;;;;;;4640858;30;20206;-74
2023/03/06 03:07:17;;;;;;;3.72;1.45;;;3.00;99.90;;;;;;4661649;30;20567;-74
2023/03/06 03:09:44;;;;;;;1.17;1.00;;;3.10;99.90;;;;;;4665134;30;20251;-74
2023/03/06 03:12:09;;;;;;;1.30;1.20;;;3.10;99.90;;;;;;4654737;30;20228;-73
2023/03/06 03:14:35;;;;;;;1.77;1.08;;;3.00;99.90;;;;;;4665791;30;20208;-74
2023/03/06 03:17:02;;;;;;;1.73;1.15;;;3.00;99.90;;;;;;4654730;30;20198;-74
2023/03/06 03:19:28;;;;;;;2.10;1.27;;;3.00;99.90;;;;;;4665198;30;20198;-73
2023/03/06 03:21:54;;;;;;;3.33;1.50;;;3.00;99.90;;;;;;4651885;30;20292;-74
2023/03/06 03:24:22;;;;;;;1.30;1.13;;;3.10;99.90;;;;;;4663894;30;20247;-73
2023/03/06 03:26:48;;;;;;;2.28;1.20;;;3.10;99.90;;;;;;4676155;30;20221;-72
2023/03/06 03:29:17;;;;;;;1.50;1.13;;;3.10;99.90;;;;;;4632975;30;20205;-73
2023/03/06 03:31:43;;;;;;;2.30;1.48;;;3.00;99.90;;;;;;4659646;30;20296;-75
2023/03/06 03:34:09;;;;;;;3.70;1.48;;;3.00;99.90;;;;;;4676512;30;20275;-73
2023/03/06 03:36:37;;;;;;;4.43;1.55;;;3.00;99.90;;;;;;4650820;30;20651;-75
2023/03/06 03:39:05;;;;;;;1.95;1.30;;;3.00;99.90;;;;;;4653192;30;20243;-76
2023/03/06 03:41:32;;;;;;;2.38;1.90;;;3.00;99.90;;;;;;4645483;30;20198;-74
2023/03/06 03:43:58;;;;;;;7.07;1.85;;;3.00;99.90;;;;;;4651783;30;20197;-74
2023/03/06 03:46:25;;;;;;;3.67;1.75;;;3.00;99.90;;;;;;4651793;30;20225;-73
2023/03/06 03:48:54;;;;;;;2.38;1.70;;;2.90;99.90;;;;;;4651825;30;20659;-73
2023/03/06 03:51:20;;;;;;;2.67;1.70;;;2.90;99.90;;;;;;4667133;30;20225;-73
2023/03/06 03:53:50;;;;;;;5.18;1.70;;;2.80;99.90;;;;;;4662286;30;20201;-74
2023/03/06 03:56:20;;;;;;;4.25;1.83;;;2.80;99.90;;;;;;4668047;30;20202;-74
2023/03/06 03:58:56;;;;;;;3.00;1.70;;;2.80;99.90;;;;;;4662716;30;20236;-74
2023/03/06 04:01:24;;;;;;;2.83;1.80;;;2.70;99.90;;;;;;4650229;30;20296;-77
2023/03/06 04:03:50;;;;;;;3.22;1.85;;;2.80;99.90;;;;;;4663383;30;20197;-75
2023/03/06 04:06:17;;;;;;;3.92;1.60;;;2.80;99.90;;;;;;4639355;30;20213;-73
2023/03/06 04:08:43;;;;;;;4.13;1.83;;;2.80;99.90;;;;;;4664640;30;20193;-73
2023/03/06 04:11:09;;;;;;;3.58;1.80;;;2.80;99.90;;;;;;4667814;30;20227;-73
2023/03/06 04:13:35;;;;;;;4.55;2.00;;;2.70;99.90;;;;;;4672699;30;20209;-75
2023/03/06 04:16:02;;;;;;;3.70;2.00;;;2.80;99.90;;;;;;4647224;30;20205;-75
2023/03/06 04:18:30;;;;;;;10.15;2.30;;;2.80;99.90;;;;;;4649108;30;20198;-73
2023/03/06 04:21:00;;;;;;;3.70;1.73;;;2.80;99.90;;;;;;4661321;30;20205;-74
2023/03/06 04:23:26;;;;;;;2.83;1.67;;;2.80;99.90;;;;;;4679992;30;20287;-74
2023/03/06 04:25:53;;;;;;;4.00;2.13;;;2.70;99.90;;;;;;4651263;30;20204;-78
2023/03/06 04:28:20;;;;;;;4.80;1.75;;;2.80;99.90;;;;;;4650660;30;20568;-74
2023/03/06 04:30:46;;;;;;;3.83;1.73;;;2.80;99.90;;;;;;4665686;30;20221;-73
2023/03/06 04:33:12;;;;;;;3.22;1.77;;;2.80;99.90;;;;;;4654377;30;20296;-74
2023/03/06 04:35:38;;;;;;;5.95;2.10;;;2.70;99.90;;;;;;4664881;30;20208;-74
2023/03/06 04:38:09;;;;;;;3.55;1.77;;;2.70;99.90;;;;;;4665058;30;20188;-75
2023/03/06 04:40:36;;;;;;;5.40;1.58;;;2.80;99.90;;;;;;4641757;30;20209;-74
2023/03/06 04:43:03;;;;;;;4.43;2.10;;;2.70;99.90;;;;;;4669002;30;20223;-74
2023/03/06 04:45:29;;;;;;;5.55;2.00;;;2.70;99.90;;;;;;4682528;30;20593;-74
2023/03/06 04:47:55;;;;;;;5.35;1.95;;;2.70;99.90;;;;;;4679709;30;20200;-74
2023/03/06 04:50:22;;;;;;;4.82;2.08;;;2.80;99.90;;;;;;4657249;30;20671;-75
2023/03/06 04:52:49;;;;;;;3.53;1.70;;;2.80;99.90;;;;;;4648675;30;20216;-74
2023/03/06 04:55:16;;;;;;;4.28;1.88;;;2.80;99.90;;;;;;4649925;30;20193;-74
2023/03/06 04:57:43;;;;;;;2.10;1.60;;;2.80;99.90;;;;;;4665547;30;20213;-74
2023/03/06 05:00:19;;;;;;;3.22;1.67;;;2.80;99.90;;;;;;4661305;30;20656;-73
2023/03/06 05:02:45;;;;;;;7.28;1.77;;;2.90;99.90;;;;;;4650874;30;20198;-74
2023/03/06 05:05:12;;;;;;;6.57;1.73;;;2.90;99.90;;;;;;4682367;30;20201;-74
2023/03/06 05:07:38;;;;;;;4.13;2.60;;;2.80;99.90;;;;;;4664741;30;20280;-74
2023/03/06 05:10:05;;;;;;;4.97;2.20;;;2.90;99.90;;;;;;4682180;30;20682;-73
2023/03/06 05:12:30;;;;;;;7.78;2.28;;;2.90;99.90;;;;;;4645650;30;20210;-74
2023/03/06 05:14:57;;;;;;;4.57;2.30;;;2.90;99.90;;;;;;4652388;30;20210;-74
2023/03/06 05:17:22;;;;;;;5.63;1.95;;;2.90;99.90;;;;;;4661462;30;20735;-74
2023/03/06 05:19:48;;;;;;;4.93;2.05;;;2.90;99.90;;;;;;4651923;30;20212;-73
2023/03/06 05:22:14;;;;;;;3.13;1.88;;;2.90;99.90;;;;;;4673898;30;20470;-74
2023/03/06 05:24:40;;;;;;;3.42;1.92;;;2.80;99.90;;;;;;4679026;30;20192;-73
2023/03/06 05:27:06;;;;;;;6.30;1.63;;;2.80;99.90;;;;;;4655573;30;20318;-74
2023/03/06 05:29:32;;;;;;;5.63;1.98;;;2.80;99.90;;;;;;4677394;30;20295;-74
2023/03/06 05:31:57;;;;;;;4.60;1.65;;;2.70;99.90;;;;;;4677333;30;20197;-75
2023/03/06 05:34:23;;;;;;;5.43;1.80;;;2.80;99.90;;;;;;4650667;30;20197;-74
2023/03/06 05:36:49;;;;;;;7.88;2.03;;;2.70;99.90;;;;;;4657976;30;20568;-73
2023/03/06 05:39:15;;;;;;;3.63;2.15;;;2.80;99.90;;;;;;4674842;30;20263;-73
2023/03/06 05:41:40;;;;;;;3.25;2.05;;;2.80;99.90;;;;;;4682290;30;20200;-73
2023/03/06 05:44:06;;;;;;;8.07;2.92;;;2.80;99.90;;;;;;4671791;30;20800;-73
2023/03/06 05:46:32;;;;;;;6.18;3.47;;;2.80;99.90;;;;;;4664458;30;20208;-73
2023/03/06 05:48:57;;;;;;;6.47;3.90;;;2.90;99.90;;;;;;4668421;30;20566;-73
2023/03/06 05:51:24;;;;;;;7.72;3.95;;;2.90;99.90;;;;;;4664794;30;20225;-72
2023/03/06 05:53:49;;;;;;;7.53;4.50;;;2.90;99.90;;;;;;4652650;30;20233;-80
2023/03/06 05:56:15;;;;;;;10.50;5.15;;;2.90;99.90;;;;;;4646001;30;20246;-73
2023/03/06 05:58:41;;;;;;;10.55;4.45;;;2.90;99.90;;;;;;4671302;30;20204;-73
2023/03/06 06:01:12;;;;;;;8.65;4.53;;;2.90;99.90;;;;;;4653174;30;20259;-75
2023/03/06 06:03:38;;;;;;;9.13;4.30;;;2.90;99.90;;;;;;4667038;30;20203;-74
2023/03/06 06:06:05;;;;;;;7.15;4.43;;;3.00;99.90;;;;;;4643900;30;20652;-73
2023/03/06 06:08:31;;;;;;;6.70;4.43;;;3.00;99.90;;;;;;4665672;30;20196;-74
2023/03/06 06:10:57;;;;;;;9.68;3.88;;;2.90;99.90;;;;;;4673491;30;20218;-74
2023/03/06 06:13:22;;;;;;;5.43;3.22;;;2.90;99.90;;;;;;4664842;30;20209;-78
2023/03/06 06:15:48;;;;;;;8.40;3.60;;;2.90;99.90;;;;;;4653682;30;20205;-75
2023/03/06 06:18:14;;;;;;;5.60;3.08;;;3.00;99.90;;;;;;4658710;30;20229;-74
2023/03/06 06:20:40;;;;;;;7.40;3.30;;;2.90;99.90;;;;;;4661040;30;20210;-74
2023/03/06 06:23:05;;;;;;;5.00;2.80;;;2.90;99.90;;;;;;4660757;30;20224;-74
2023/03/06 06:25:32;;;;;;;4.18;2.72;;;2.90;99.90;;;;;;4657736;30;20660;-73
2023/03/06 06:27:57;;;;;;;3.13;2.83;;;3.00;99.90;;;;;;4642054;30;20200;-73
2023/03/06 06:30:24;;;;;;;9.05;3.08;;;3.00;99.90;;;;;;4639110;30;20225;-73
2023/03/06 06:32:49;;;;;;;7.32;3.67;;;2.90;99.90;;;;;;4657488;30;20194;-73
2023/03/06 06:35:15;;;;;;;7.20;3.22;;;2.90;99.90;;;;;;4662509;30;20208;-73
2023/03/06 06:37:41;;;;;;;8.70;3.33;;;2.90;99.90;;;;;;4652196;30;20637;-74
2023/03/06 06:40:08;;;;;;;5.78;3.78;;;2.90;99.90;;;;;;4664212;30;20239;-77
2023/03/06 06:42:35;;;;;;;12.88;3.90;;;2.90;99.90;;;;;;4665847;30;21014;-74
2023/03/06 06:45:02;;;;;;;7.32;3.92;;;2.90;99.90;;;;;;4677719;30;20652;-73
2023/03/06 06:47:28;;;;;;;5.57;4.10;;;2.90;99.90;;;;;;4666361;30;20193;-73
2023/03/06 06:49:55;;;;;;;7.28;3.90;;;2.90;99.90;;;;;;4667247;30;20224;-73
2023/03/06 06:52:21;;;;;;;7.85;3.78;;;2.90;99.90;;;;;;4640568;30;20802;-72
2023/03/06 06:54:47;;;;;;;7.22;3.63;;;2.90;99.90;;;;;;4667104;30;20193;-75
2023/03/06 06:57:13;;;;;;;4.65;2.90;;;2.80;99.90;;;;;;4638322;30;20277;-74
2023/03/06 06:59:39;;;;;;;6.22;2.95;;;2.90;99.90;;;;;;4651169;30;20242;-73
2023/03/06 07:02:06;;;;;;;4.75;2.88;;;2.90;99.90;;;;;;4660804;30;20219;-73
2023/03/06 07:04:32;;;;;;;4.28;2.60;;;2.90;99.90;;;;;;4659893;30;20209;-73
2023/03/06 07:06:58;;;;;;;5.45;3.13;;;2.90;99.90;;;;;;4666057;30;20203;-73
2023/03/06 07:09:24;;;;;;;7.72;3.00;;;2.90;99.90;;;;;;4678272;30;20241;-73
2023/03/06 07:11:50;;;;;;;3.58;2.38;;;2.90;99.90;;;;;;4660086;30;20307;-73
2023/03/06 07:14:16;;;;;;;6.10;3.28;;;2.90;99.90;;;;;;4650203;30;20205;-73
2023/03/06 07:16:41;;;;;;;6.78;3.13;;;3.00;99.90;;;;;;4650174;30;20209;-73
2023/03/06 07:19:07;;;;;;;5.22;2.90;;;3.00;99.90;;;;;;4676400;30;20196;-73
2023/03/06 07:21:33;;;;;;;5.47;2.90;;;3.10;99.90;;;;;;4666436;30;20683;-73
2023/03/06 07:23:59;;;;;;;6.82;3.70;;;3.20;99.90;;;;;;4651973;30;20645;-76
2023/03/06 07:26:26;;;;;;;7.63;4.40;;;3.40;99.90;;;;;;4658998;30;20206;-74
2023/03/06 07:28:53;;;;;;;9.02;5.22;;;3.40;99.90;;;;;;4672522;30;20231;-75
2023/03/06 07:31:21;;;;;;;6.25;5.13;;;3.70;99.90;;;;;;4677066;30;20252;-73
2023/03/06 07:33:51;;;;;;;6.57;4.18;;;3.80;99.90;;;;;;4667421;30;20596;-73
2023/03/06 07:36:17;;;;;;;7.53;4.30;;;4.00;99.90;;;;;;4663975;30;20244;-73
2023/03/06 07:38:42;;;;;;;7.45;5.78;;;4.10;99.90;;;;;;4641067;30;20288;-75
2023/03/06 07:41:12;;;;;;;5.68;3.58;;;4.30;99.90;;;;;;4644591;30;20301;-73
2023/03/06 07:43:45;;;;;;;5.95;3.53;;;4.60;99.90;;;;;;4657552;30;20219;-73
2023/03/06 07:46:13;;;;;;;8.18;3.67;;;4.80;99.90;;;;;;4647622;30;20217;-79
2023/03/06 07:48:39;;;;;;;4.10;2.65;;;5.00;99.90;;;;;;4654494;30;20193;-78
2023/03/06 07:51:12;;;;;;;5.80;2.65;;;5.20;99.90;;;;;;4675186;30;20307;-75
2023/03/06 07:53:38;;;;;;;4.72;2.80;;;5.40;99.90;;;;;;4665216;30;20338;-73
2023/03/06 07:56:08;;;;;;;6.60;2.80;;;5.60;99.90;;;;;;4682399;30;20280;-74
2023/03/06 07:58:35;;;;;;;6.07;2.60;;;5.80;99.90;;;;;;4671308;30;20196;-74
2023/03/06 08:01:05;;;;;;;4.28;2.40;;;6.00;99.90;;;;;;4664436;30;20245;-76
2023/03/06 08:03:31;;;;;;;5.75;3.28;;;6.10;99.90;;;;;;4662639;30;20701;-76
2023/03/06 08:06:05;;;;;;;3.95;2.50;;;6.30;99.90;;;;;;4679986;30;20213;-74
2023/03/06 08:08:33;;;;;;;4.22;2.72;;;6.50;99.90;;;;;;4663883;30;20378;-76
2023/03/06 08:10:58;;;;;;;6.32;2.50;;;6.70;99.90;;;;;;4657949;30;20225;-73
2023/03/06 08:13:24;;;;;;;5.40;2.60;;;7.00;99.90;;;;;;4656200;30;20514;-73
2023/03/06 08:15:50;;;;;;;3.60;2.25;;;7.20;99.90;;;;;;4654174;30;20288;-73
2023/03/06 08:18:16;;;;;;;2.65;2.00;;;7.40;99.90;;;;;;4662790;30;20252;-74
2023/03/06 08:20:41;;;;;;;4.93;2.38;;;7.60;99.90;;;;;;4664105;30;20212;-75
2023/03/06 08:23:07;;;;;;;4.85;2.13;;;7.80;99.90;;;;;;4675509;30;21216;-73
2023/03/06 08:25:33;;;;;;;3.03;2.10;;;8.00;99.90;;;;;;4649687;30;20216;-74
2023/03/06 08:27:58;;;;;;;2.53;2.00;;;8.20;99.90;;;;;;4647071;30;20296;-74
2023/03/06 08:30:24;;;;;;;3.08;2.10;;;8.20;99.90;;;;;;4677785;30;20603;-74
2023/03/06 08:32:50;;;;;;;3.97;2.20;;;8.20;99.90;;;;;;4676769;30;20232;-74
2023/03/06 08:35:16;;;;;;;4.95;2.20;;;8.10;99.90;;;;;;4666846;30;20566;-74
2023/03/06 08:37:41;;;;;;;4.03;2.40;;;8.00;99.90;;;;;;4679041;30;20281;-74
2023/03/06 08:40:08;;;;;;;4.13;2.20;;;7.80;99.90;;;;;;4656822;30;20731;-78
2023/03/06 08:42:34;;;;;;;2.40;1.88;;;7.60;99.90;;;;;;4649128;30;20198;-74
2023/03/06 08:44:59;;;;;;;4.75;1.95;;;7.40;99.90;;;;;;4664064;30;20196;-74
2023/03/06 08:47:25;;;;;;;4.03;2.08;;;7.40;99.90;;;;;;4663247;30;20327;-74
2023/03/06 08:49:51;;;;;;;4.30;2.23;;;7.40;99.90;;;;;;4663468;30;21278;-74
2023/03/06 08:52:18;;;;;;;4.07;2.10;;;7.60;99.90;;;;;;4628777;30;20471;-74
2023/03/06 08:54:44;;;;;;;4.63;2.00;;;7.70;99.90;;;;;;4668021;30;20228;-74
2023/03/06 08:57:10;;;;;;;3.65;2.00;;;7.90;99.90;;;;;;4664269;30;20200;-75
2023/03/06 08:59:36;;;;;;;7.45;3.00;;;8.20;99.90;;;;;;4672243;30;20299;-77
2023/03/06 09:02:04;;;;;;;2.75;1.88;;;8.50;99.90;;;;;;4682592;30;20199;-74
2023/03/06 09:04:30;;;;;;;5.32;1.90;;;8.80;99.90;;;;;;4651092;30;20208;-74
2023/03/06 09:06:56;;;;;;;3.42;1.77;;;9.00;99.90;;;;;;4667239;30;20647;-74
2023/03/06 09:09:22;;;;;;;4.95;1.75;;;9.00;99.90;;;;;;4673095;30;20571;-74
2023/03/06 09:11:50;;;;;;;5.88;2.22;;;9.10;99.90;;;;;;4642248;30;20699;-75
2023/03/06 09:14:15;;;;;;;2.67;1.67;;;9.30;99.90;;;;;;4661807;30;20572;-74
2023/03/06 09:16:41;;;;;;;4.88;1.73;;;9.40;99.90;;;;;;4653123;30;20194;-74
2023/03/06 09:19:07;;;;;;;5.03;1.80;;;9.50;99.90;;;;;;4655332;30;20579;-78
2023/03/06 09:21:33;;;;;;;4.53;1.67;;;9.60;99.90;;;;;;4658615;30;20686;-74
2023/03/06 09:23:59;;;;;;;9.30;1.80;;;9.80;99.90;;;;;;4670123;30;20271;-74
2023/03/06 09:26:24;;;;;;;4.72;1.75;;;9.90;99.90;;;;;;4665125;30;20276;-74
2023/03/06 09:28:50;;;;;;;3.15;1.70;;;10.00;99.90;;;;;;4655463;30;20209;-75
2023/03/06 09:31:18;;;;;;;2.88;1.77;;;10.10;99.90;;;;;;4647091;30;20256;-75
2023/03/06 09:33:44;;;;;;;4.15;1.60;;;10.20;99.90;;;;;;4657062;30;20769;-74
2023/03/06 09:36:19;;;;;;;2.70;1.60;;;10.30;99.90;;;;;;4649524;30;20575;-74
2023/03/06 09:38:48;;;;;;;5.78;2.08;;;10.30;99.90;;;;;;4658236;30;20495;-76
2023/03/06 09:41:37;;;;;;;7.65;1.60;;;10.30;99.90;;;;;;4651754;30;20240;-74
2023/03/06 09:44:07;;;;;;;5.93;1.60;;;10.20;99.90;;;;;;4672903;30;20188;-74
2023/03/06 09:47:00;;;;;;;5.20;1.77;;;10.10;99.90;;;;;;4679948;30;20576;-76
2023/03/06 09:49:52;;;;;;;7.00;2.05;;;10.10;99.90;;;;;;4673380;30;20221;-73
2023/03/06 09:52:21;;;;;;;6.47;1.95;;;10.10;99.90;;;;;;4652837;30;20201;-80
2023/03/06 09:54:53;;;;;;;3.45;1.40;;;10.00;99.90;;;;;;4682708;30;20199;-74
2023/03/06 09:57:24;;;;;;;3.00;1.42;;;9.90;99.90;;;;;;4685440;30;20646;-79
2023/03/06 09:59:54;;;;;;;7.32;1.67;;;10.10;99.90;;;;;;4664457;30;20290;-75
2023/03/06 10:02:20;;;;;;;2.00;1.60;;;10.20;99.90;;;;;;4652194;30;20287;-78
2023/03/06 10:04:51;;;;;;;5.05;1.60;;;10.30;99.90;;;;;;4683009;30;20677;-75
2023/03/06 10:07:23;;;;;;;2.85;1.45;;;10.40;99.90;;;;;;4683087;30;20283;-74
2023/03/06 10:09:55;;;;;;;5.50;1.27;;;10.50;99.90;;;;;;4651625;30;20202;-74
2023/03/06 10:12:48;;;;;;;3.17;1.60;;;10.70;99.90;;;;;;4654015;30;20664;-75
2023/03/06 10:15:31;;;;;;;5.88;1.50;;;10.80;99.90;;;;;;4647056;30;20201;-74
2023/03/06 10:17:56;;;;;;;5.90;1.20;;;10.80;99.90;;;;;;4668609;30;20272;-74
2023/03/06 10:20:32;;;;;;;1.83;1.02;;;10.90;99.90;;;;;;4668104;30;20209;-75
2023/03/06 10:23:44;;;;;;;3.97;0.90;;;11.20;99.90;;;;;;4677668;30;20685;-74
2023/03/06 10:26:18;;;;;;;4.10;1.60;;;11.60;99.90;;;;;;4637649;30;20218;-74
2023/03/06 10:28:56;;;;;;;2.65;1.00;;;11.80;99.90;;;;;;4670261;30;20287;-74
2023/03/06 10:31:26;;;;;;;2.90;0.90;;;12.10;99.90;;;;;;4666892;30;20217;-74
2023/03/06 10:34:15;;;;;;;3.42;0.70;;;12.30;99.90;;;;;;4661469;30;20193;-74
2023/03/06 10:36:41;;;;;;;3.78;0.82;;;12.40;99.90;;;;;;4639308;30;20206;-74
2023/03/06 10:39:16;;;;;;;3.60;1.10;;;12.40;99.90;;;;;;4682102;30;20259;-74
2023/03/06 10:41:41;;;;;;;3.50;0.90;;;12.60;99.90;;;;;;4681596;30;20224;-74
2023/03/06 10:44:08;;;;;;;5.00;1.13;;;12.70;99.80;;;;;;4644702;30;20612;-80
2023/03/06 10:46:38;;;;;;;3.90;0.88;;;12.80;99.20;;;;;;4670284;30;20271;-74
2023/03/06 10:49:21;;;;;;;2.25;1.00;;;12.70;97.90;;;;;;4682801;30;20267;-74
2023/03/06 10:52:08;;;;;;;3.15;0.93;;;12.60;97.20;;;;;;4684809;30;20291;-74
2023/03/06 10:54:37;;;;;;;3.53;0.98;;;12.60;96.20;;;;;;4651919;30;20288;-75
2023/03/06 10:57:29;;;;;;;3.63;0.75;;;12.60;96.90;;;;;;4662291;30;20193;-74
2023/03/06 11:00:03;;;;;;;2.80;0.90;;;12.80;96.60;;;;;;4655334;30;20233;-73
2023/03/06 11:02:31;;;;;;;5.38;1.10;;;12.90;95.70;;;;;;4642786;30;20193;-74
2023/03/06 11:05:00;;;;;;;2.80;0.93;;;12.90;94.80;;;;;;4643282;30;20583;-80
2023/03/06 11:07:28;;;;;;;2.88;0.80;;;12.60;94.30;;;;;;4660334;30;20247;-75
2023/03/06 11:09:57;;;;;;;3.60;1.00;;;12.40;94.60;;;;;;4673177;30;20229;-74
2023/03/06 11:12:27;;;;;;;2.33;0.70;;;12.20;94.50;;;;;;4666284;30;20194;-78
2023/03/06 11:15:16;;;;;;;2.00;0.88;;;12.00;94.20;;;;;;4649449;30;20238;-77
2023/03/06 11:18:06;;;;;;;10.77;0.95;;;11.70;94.00;;;;;;4659740;30;20201;-74
2023/03/06 11:20:53;;;;;;;4.60;0.80;;;11.80;94.70;;;;;;4683989;30;20271;-76
2023/03/06 11:23:46;;;;;;;2.85;1.00;;;12.10;95.20;;;;;;4655766;30;20202;-75
2023/03/06 11:26:14;;;;;;;3.25;0.80;;;12.60;95.20;;;;;;4653880;30;20197;-75
2023/03/06 11:29:00;;;;;;;4.13;0.98;;;13.00;94.50;;;;;;4662835;30;20198;-75
2023/03/06 11:31:31;;;;;;;4.15;1.00;;;13.20;93.70;;;;;;4666892;30;20675;-76
2023/03/06 11:34:19;;;;;;;4.88;0.90;;;13.20;92.90;;;;;;4675490;30;20299;-75
2023/03/06 11:37:05;;;;;;;3.45;0.52;;;13.10;91.80;;;;;;4665802;30;20276;-75
2023/03/06 11:39:56;;;;;;;3.90;1.05;;;13.20;91.70;;;;;;4675761;30;20227;-76
2023/03/06 11:42:35;;;;;;;2.15;0.50;;;13.30;91.40;;;;;;4641671;30;20645;-75
2023/03/06 11:45:36;;;;;;;4.25;0.80;;;13.60;91.10;;;;;;4625936;30;20283;-75
2023/03/06 11:48:14;;;;;;;2.28;0.80;;;13.90;90.70;;;;;;4642202;30;20216;-75
2023/03/06 11:50:44;;;;;;;3.28;0.80;;;14.00;90.00;;;;;;4637423;30;20308;-75
2023/03/06 11:53:13;;;;;;;3.10;0.88;;;14.10;89.20;;;;;;4671085;30;20648;-75
2023/03/06 11:55:54;;;;;;;2.95;0.85;;;14.20;87.30;;;;;;4667030;30;20208;-74
2023/03/06 11:58:19;;;;;;;4.28;0.80;;;14.40;86.30;;;;;;4650076;30;20197;-75
2023/03/06 12:00:45;;;;;;;2.55;1.05;;;14.60;84.00;;;;;;4661028;30;20249;-80
2023/03/06 12:03:27;;;;;;;3.78;0.90;;;14.80;81.30;;;;;;4661767;30;20559;-75
2023/03/06 12:05:55;;;;;;;2.20;0.95;;;14.70;77.90;;;;;;4683580;30;20185;-74
2023/03/06 12:08:57;;;;;;;2.33;0.70;;;14.60;76.40;;;;;;4681006;30;20551;-75
2023/03/06 12:11:26;;;;;;;2.70;0.95;;;14.40;75.70;;;;;;4666606;30;20267;-75
2023/03/06 12:14:07;;;;;;;3.15;0.85;;;14.20;75.70;;;;;;4656650;30;20202;-75
2023/03/06 12:17:14;;;;;;;1.65;0.70;;;14.00;75.00;;;;;;4664775;30;20655;-74
2023/03/06 12:20:01;;;;;;;3.90;1.05;;;13.90;74.70;;;;;;4673561;30;20227;-75
2023/03/06 12:22:49;;;;;;;5.43;1.00;;;13.80;74.90;;;;;;4650393;30;20252;-74
2023/03/06 12:25:26;;;;;;;4.13;1.13;;;13.70;74.60;;;;;;4661760;30;20192;-74
2023/03/06 12:28:11;;;;;;;4.40;0.85;;;13.60;75.80;;;;;;4675885;30;20192;-75
2023/03/06 12:31:08;;;;;;;5.78;1.17;;;13.60;76.10;;;;;;4675639;30;20219;-75
2023/03/06 12:33:51;;;;;;;5.60;1.20;;;13.60;75.80;;;;;;4655415;30;20196;-77
2023/03/06 12:36:35;;;;;;;3.78;0.88;;;13.40;76.00;;;;;;4651248;30;20189;-81
2023/03/06 12:39:03;;;;;;;3.22;0.90;;;13.20;76.50;;;;;;4660720;30;20212;-74
2023/03/06 12:41:32;;;;;;;3.58;1.00;;;13.10;77.00;;;;;;4665697;30;20703;-75
2023/03/06 12:43:58;;;;;;;5.68;1.10;;;13.00;77.60;;;;;;4675084;30;20258;-75
2023/03/06 12:46:25;;;;;;;3.15;0.90;;;12.80;78.10;;;;;;4650085;30;20193;-75
2023/03/06 12:49:03;;;;;;;1.00;0.80;;;12.60;78.40;;;;;;4651095;30;20427;-75
2023/03/06 12:51:30;;;;;;;3.47;0.90;;;12.50;78.70;;;;;;4652481;30;20221;-74
2023/03/06 12:53:57;;;;;;;2.30;1.10;;;12.30;79.00;;;;;;4652272;30;20209;-77
2023/03/06 12:56:23;;;;;;;4.25;0.90;;;12.10;79.50;;;;;;4681872;30;20209;-74
2023/03/06 12:58:54;;;;;;;2.13;1.10;;;11.90;79.50;;;;;;4679848;30;20197;-75
2023/03/06 13:01:47;;;;;;;2.25;0.85;;;11.80;80.30;;;;;;4659652;30;20392;-74
2023/03/06 13:04:48;;;;;;;3.03;1.05;;;11.70;80.90;;;;;;4676497;30;20222;-75
2023/03/06 13:07:17;;;;;;;1.77;0.93;;;11.50;80.40;;;;;;4680518;30;20268;-75
2023/03/06 13:10:05;;;;;;;2.28;1.00;;;11.30;80.50;;;;;;4658271;30;20211;-75